Time;durP1;ratioP1;P1;durP2;ratioP2;P2;SDS_P1;SDS_P2;PMS_P1;PMS_P2;Temp;Humidity;BMP_temperature;BMP_pressure;BME280_temperature;BME280_humidity;BME280_pressure;Samples;Min_cycle;Max_cycle;Signal;HPM_P1;HPM_P2
2023/10/21 00:00:15;;;;;;;;;4.00;4.00;;;;;16.17;77.90;98111.44;5021878;28;45632;-65
2023/10/21 00:02:40;;;;;;;;;3.33;3.00;;;;;16.15;78.26;98122.09;5036653;28;45553;-65
2023/10/21 00:05:06;;;;;;;;;2.33;2.33;;;;;16.13;78.60;98120.50;5038452;28;45356;-66
2023/10/21 00:07:31;;;;;;;;;4.00;4.00;;;;;16.07;79.04;98105.88;5037022;28;45306;-65
2023/10/21 00:09:58;;;;;;;;;3.67;3.33;;;;;16.14;79.10;98114.28;5034860;28;45508;-65
2023/10/21 00:12:25;;;;;;;;;2.00;1.67;;;;;16.03;79.04;98126.34;5029176;28;45480;-65
2023/10/21 00:14:51;;;;;;;;;6.00;3.00;;;;;16.04;79.73;98129.81;5018474;28;45917;-66
2023/10/21 00:17:21;;;;;;;;;3.00;2.00;;;;;15.99;79.53;98132.78;5022085;28;45917;-65
2023/10/21 00:19:47;;;;;;;;;2.00;2.00;;;;;16.00;79.53;98126.53;5031540;28;45475;-64
2023/10/21 00:22:13;;;;;;;;;1.00;1.00;;;;;15.66;79.13;98090.75;5018008;28;45412;-65
2023/10/21 00:24:39;;;;;;;;;1.00;1.00;;;;;15.96;79.08;98151.41;5034148;28;45544;-66
2023/10/21 00:27:05;;;;;;;;;1.00;1.00;;;;;15.98;77.70;98165.38;5017321;28;46178;-66
2023/10/21 00:29:31;;;;;;;;;0.33;0.33;;;;;15.98;76.71;98168.00;5045736;28;45350;-66
2023/10/21 00:32:04;;;;;;;;;0.00;0.00;;;;;15.73;75.57;98125.56;5037683;28;45462;-65
2023/10/21 00:34:30;;;;;;;;;0.00;0.00;;;;;15.83;75.56;98168.97;5037710;28;45389;-65
2023/10/21 00:36:56;;;;;;;;;0.00;0.00;;;;;16.01;74.87;98188.94;5053713;28;45722;-65
2023/10/21 00:39:22;;;;;;;;;0.00;0.00;;;;;15.77;73.36;98161.41;5037464;28;45532;-65
2023/10/21 00:41:48;;;;;;;;;1.00;0.00;;;;;16.02;72.91;98206.50;5039565;28;45496;-65
2023/10/21 00:44:14;;;;;;;;;0.00;0.00;;;;;15.83;72.18;98177.72;5038140;28;45484;-64
2023/10/21 00:46:48;;;;;;;;;0.00;0.00;;;;;15.88;72.26;98195.91;5037765;28;46360;-66
2023/10/21 00:49:15;;;;;;;;;0.00;0.00;;;;;16.04;72.33;98225.75;5038611;28;45476;-64
2023/10/21 00:51:48;;;;;;;;;0.00;0.00;;;;;15.84;72.50;98200.53;5039220;28;45213;-67
2023/10/21 00:54:16;;;;;;;;;0.00;0.00;;;;;15.62;72.41;98190.38;5039116;28;45449;-65
2023/10/21 00:56:45;;;;;;;;;0.00;0.00;;;;;15.81;72.64;98220.97;5038697;28;45410;-65
2023/10/21 00:59:13;;;;;;;;;0.00;0.00;;;;;16.01;72.80;98265.50;5023542;28;45616;-66
2023/10/21 01:01:43;;;;;;;;;0.00;0.00;;;;;15.85;72.45;98251.50;5037291;28;45405;-64
2023/10/21 01:04:10;;;;;;;;;0.00;0.00;;;;;15.87;72.69;98270.75;5037928;28;45469;-64
2023/10/21 01:06:36;;;;;;;;;1.67;0.00;;;;;15.87;72.75;98270.75;5036966;28;45370;-65
2023/10/21 01:09:02;;;;;;;;;0.00;0.00;;;;;15.84;72.84;98281.50;5037174;28;45591;-66
2023/10/21 01:11:27;;;;;;;;;0.00;0.00;;;;;15.91;73.00;98303.94;5037412;28;45496;-65
2023/10/21 01:13:54;;;;;;;;;0.00;0.00;;;;;15.90;72.77;98291.72;5038077;28;45417;-64
2023/10/21 01:16:19;;;;;;;;;0.00;0.00;;;;;15.85;72.68;98294.63;5038184;28;45480;-64
2023/10/21 01:18:45;;;;;;;;;0.00;0.00;;;;;15.86;72.06;98309.50;5037213;28;45437;-66
2023/10/21 01:21:11;;;;;;;;;0.33;0.00;;;;;15.80;72.05;98307.25;5036517;28;45546;-65
2023/10/21 01:23:43;;;;;;;;;0.00;0.00;;;;;15.66;71.90;98289.53;5037652;28;45416;-65
2023/10/21 01:26:09;;;;;;;;;0.00;0.00;;;;;15.69;70.82;98299.06;5035598;28;48019;-65
2023/10/21 01:28:35;;;;;;;;;0.00;0.00;;;;;15.66;71.54;98326.47;5037022;28;45565;-67
2023/10/21 01:31:01;;;;;;;;;0.00;0.00;;;;;15.62;70.92;98332.00;5036925;28;45624;-66
2023/10/21 01:33:26;;;;;;;;;0.00;0.00;;;;;15.62;70.97;98317.00;5037145;28;45586;-66
2023/10/21 01:35:52;;;;;;;;;0.00;0.00;;;;;15.57;70.26;98324.34;5036770;28;45457;-66
2023/10/21 01:38:19;;;;;;;;;0.67;0.00;;;;;15.60;69.99;98329.44;5031949;28;45867;-66
2023/10/21 01:40:45;;;;;;;;;0.00;0.00;;;;;15.62;69.52;98351.31;5036677;28;45531;-66
2023/10/21 01:43:11;;;;;;;;;0.00;0.00;;;;;15.59;69.88;98354.13;5037096;28;45476;-66
2023/10/21 01:45:37;;;;;;;;;0.00;0.00;;;;;15.60;70.21;98357.63;5037802;28;45625;-65
2023/10/21 01:48:04;;;;;;;;;1.00;0.00;;;;;15.59;70.47;98363.81;5038181;28;45408;-64
2023/10/21 01:50:30;;;;;;;;;0.00;0.00;;;;;15.55;70.42;98359.69;5037045;28;45751;-65
2023/10/21 01:52:56;;;;;;;;;0.67;0.00;;;;;15.52;69.92;98367.75;5037017;28;45385;-67
2023/10/21 01:55:22;;;;;;;;;1.33;0.00;;;;;15.55;70.42;98371.06;5036399;28;46324;-65
2023/10/21 01:57:48;;;;;;;;;0.00;0.00;;;;;15.43;70.47;98350.66;5033604;28;45424;-66
2023/10/21 02:00:18;;;;;;;;;0.00;0.00;;;;;15.55;70.58;98378.16;5030485;28;46235;-65
2023/10/21 02:02:50;;;;;;;;;0.00;0.00;;;;;15.47;71.07;98374.16;5023449;28;45478;-65
2023/10/21 02:05:16;;;;;;;;;0.00;0.00;;;;;15.55;70.90;98378.97;5019252;28;46370;-65
2023/10/21 02:07:42;;;;;;;;;0.00;0.00;;;;;15.52;70.55;98387.09;5029960;28;45495;-65
2023/10/21 02:10:08;;;;;;;;;0.00;0.00;;;;;15.48;70.63;98370.56;5035375;28;46095;-64
2023/10/21 02:12:34;;;;;;;;;1.33;1.00;;;;;15.45;70.44;98393.63;5024206;28;45512;-65
2023/10/21 02:14:59;;;;;;;;;0.00;0.00;;;;;15.36;70.73;98392.34;5019531;28;46191;-65
2023/10/21 02:17:25;;;;;;;;;1.00;0.00;;;;;15.40;70.62;98396.53;5022761;28;45480;-65
2023/10/21 02:19:57;;;;;;;;;0.00;0.00;;;;;15.45;70.01;98407.66;5031748;28;45380;-65
2023/10/21 02:22:26;;;;;;;;;0.33;0.33;;;;;15.46;69.60;98413.78;5028593;28;45385;-65
2023/10/21 02:24:56;;;;;;;;;2.00;0.00;;;;;15.41;69.44;98421.09;5035040;28;46814;-65
2023/10/21 02:27:22;;;;;;;;;0.00;0.00;;;;;15.39;68.99;98428.25;5035884;28;45398;-66
2023/10/21 02:29:47;;;;;;;;;0.00;0.00;;;;;15.39;68.69;98425.63;5022003;28;45378;-65
2023/10/21 02:32:13;;;;;;;;;0.00;0.00;;;;;15.32;68.70;98425.09;5032956;28;45467;-64
2023/10/21 02:34:39;;;;;;;;;0.00;0.00;;;;;15.26;68.48;98433.34;5038965;28;45416;-65
2023/10/21 02:37:04;;;;;;;;;0.00;0.00;;;;;15.23;67.86;98429.09;5039501;28;45464;-64
2023/10/21 02:39:30;;;;;;;;;0.00;0.00;;;;;15.24;68.19;98433.41;5039628;28;45733;-67
2023/10/21 02:41:55;;;;;;;;;0.33;0.00;;;;;15.20;67.92;98431.88;5039718;28;45505;-65
2023/10/21 02:44:21;;;;;;;;;2.67;0.00;;;;;15.29;68.02;98437.59;5038039;28;45536;-65
2023/10/21 02:46:48;;;;;;;;;0.00;0.00;;;;;15.27;68.06;98441.16;5026286;28;45488;-65
2023/10/21 02:49:14;;;;;;;;;0.00;0.00;;;;;15.19;67.00;98408.25;5046082;28;45296;-65
2023/10/21 02:51:40;;;;;;;;;0.00;0.00;;;;;15.29;66.91;98449.00;5040489;28;45452;-65
2023/10/21 02:54:10;;;;;;;;;0.00;0.00;;;;;15.23;66.91;98458.09;5039145;28;46247;-64
2023/10/21 02:56:36;;;;;;;;;1.00;0.00;;;;;15.28;66.79;98460.50;5038064;28;45504;-65
2023/10/21 02:59:02;;;;;;;;;0.00;0.00;;;;;15.31;66.99;98451.56;5038654;28;45884;-65
2023/10/21 03:01:28;;;;;;;;;0.00;0.00;;;;;15.27;66.98;98466.69;5039361;28;45350;-65
2023/10/21 03:03:54;;;;;;;;;0.00;0.00;;;;;15.27;67.20;98466.69;5023359;28;45240;-65
2023/10/21 03:06:23;;;;;;;;;0.00;0.00;;;;;15.27;66.79;98467.53;5039275;28;45728;-65
2023/10/21 03:08:49;;;;;;;;;1.00;0.00;;;;;15.06;66.81;98445.78;5039278;28;45461;-64
2023/10/21 03:11:15;;;;;;;;;1.00;0.67;;;;;15.13;66.74;98470.03;5039216;28;45379;-65
2023/10/21 03:13:41;;;;;;;;;1.00;0.00;;;;;15.06;66.49;98481.84;5038641;28;45507;-65
2023/10/21 03:16:11;;;;;;;;;1.00;0.00;;;;;15.11;67.33;98485.09;5039166;28;45383;-63
2023/10/21 03:18:38;;;;;;;;;3.33;0.00;;;;;15.17;66.62;98487.41;5037531;28;45471;-65
2023/10/21 03:21:04;;;;;;;;;0.33;0.00;;;;;15.14;66.67;98487.59;5024820;28;45604;-65
2023/10/21 03:23:31;;;;;;;;;0.00;0.00;;;;;15.21;66.88;98496.00;5039866;28;45465;-65
2023/10/21 03:25:58;;;;;;;;;0.00;0.00;;;;;15.15;66.88;98493.72;5023898;28;45488;-65
2023/10/21 03:28:26;;;;;;;;;2.33;0.00;;;;;15.06;67.06;98500.31;5038762;28;45481;-65
2023/10/21 03:30:55;;;;;;;;;0.67;0.67;;;;;14.91;67.51;98488.78;5039239;28;45273;-65
2023/10/21 03:33:21;;;;;;;;;0.00;0.00;;;;;14.96;68.15;98507.00;5039231;28;45501;-65
2023/10/21 03:36:01;;;;;;;;;0.67;0.00;;;;;15.00;68.07;98498.84;5039927;28;45518;-65
2023/10/21 03:38:27;;;;;;;;;0.00;0.00;;;;;14.96;67.53;98507.00;5025248;28;45674;-65
2023/10/21 03:41:02;;;;;;;;;3.67;1.33;;;;;14.89;68.13;98500.31;5038575;28;45409;-64
2023/10/21 03:43:34;;;;;;;;;0.00;0.00;;;;;14.90;68.32;98512.56;5038691;28;46156;-64
2023/10/21 03:46:05;;;;;;;;;0.00;0.00;;;;;14.73;68.49;98487.91;5037936;28;45482;-64
2023/10/21 03:48:32;;;;;;;;;4.33;0.33;;;;;14.41;68.31;98461.41;5039729;28;45386;-64
2023/10/21 03:51:13;;;;;;;;;1.00;1.00;;;;;14.74;68.54;98510.72;5054477;28;45536;-64
2023/10/21 03:53:40;;;;;;;;;1.33;0.33;;;;;14.88;68.36;98532.88;5038665;28;46340;-64
2023/10/21 03:56:06;;;;;;;;;1.00;1.00;;;;;14.89;68.10;98542.50;5039130;28;45700;-64
2023/10/21 03:58:32;;;;;;;;;4.33;0.00;;;;;14.72;68.17;98520.47;5038282;28;45559;-65
2023/10/21 04:00:58;;;;;;;;;0.00;0.00;;;;;14.79;68.34;98539.47;5038092;28;45497;-65
2023/10/21 04:03:25;;;;;;;;;3.33;0.00;;;;;14.63;68.04;98516.50;5033852;28;46120;-64
2023/10/21 04:05:51;;;;;;;;;2.00;0.00;;;;;14.52;68.08;98525.84;5022403;28;45480;-65
2023/10/21 04:08:17;;;;;;;;;2.00;1.00;;;;;14.33;68.28;98528.53;5019845;28;45620;-65
2023/10/21 04:10:44;;;;;;;;;2.00;0.00;;;;;14.24;68.08;98515.81;5018807;28;45744;-63
2023/10/21 04:13:10;;;;;;;;;0.00;0.00;;;;;13.94;68.58;98472.47;5017965;28;45552;-64
2023/10/21 04:15:35;;;;;;;;;3.00;0.00;;;;;14.48;68.04;98562.03;5018818;28;45323;-64
2023/10/21 04:18:00;;;;;;;;;0.00;0.00;;;;;14.45;68.49;98572.72;5018047;28;45459;-64
2023/10/21 04:20:27;;;;;;;;;0.00;0.00;;;;;14.13;68.56;98532.97;5019874;28;45530;-64
2023/10/21 04:22:52;;;;;;;;;0.00;0.00;;;;;14.10;68.46;98525.22;5035852;28;45512;-65
2023/10/21 04:25:18;;;;;;;;;2.00;1.00;;;;;14.46;68.50;98576.22;5036972;28;45450;-64
2023/10/21 04:27:44;;;;;;;;;0.67;0.00;;;;;14.17;69.05;98549.50;5033399;28;45329;-64
2023/10/21 04:30:10;;;;;;;;;0.00;0.00;;;;;14.42;69.06;98591.28;5029689;28;45539;-65
2023/10/21 04:32:36;;;;;;;;;0.00;0.00;;;;;14.33;68.95;98568.03;5030191;28;45635;-64
2023/10/21 04:35:04;;;;;;;;;0.00;0.00;;;;;14.40;69.08;98586.13;5017611;28;45351;-65
2023/10/21 04:37:37;;;;;;;;;0.00;0.00;;;;;14.45;68.87;98593.78;5017379;28;45712;-65
2023/10/21 04:40:03;;;;;;;;;1.33;0.33;;;;;14.48;69.13;98603.34;5018350;28;45461;-65
2023/10/21 04:42:30;;;;;;;;;0.00;0.00;;;;;14.36;68.63;98596.88;5019007;28;45555;-65
2023/10/21 04:44:55;;;;;;;;;1.00;0.00;;;;;14.32;68.96;98585.59;5027332;28;45365;-64
2023/10/21 04:47:21;;;;;;;;;1.00;0.00;;;;;14.42;69.03;98610.56;5024172;28;45510;-64
2023/10/21 04:49:47;;;;;;;;;2.00;0.00;;;;;14.39;69.01;98616.00;5017108;28;46122;-65
2023/10/21 04:52:14;;;;;;;;;1.00;0.00;;;;;14.45;69.36;98629.78;5017020;28;45420;-65
2023/10/21 04:54:43;;;;;;;;;0.00;0.00;;;;;14.42;68.75;98629.00;5018574;28;45444;-63
2023/10/21 04:57:12;;;;;;;;;1.00;0.00;;;;;14.40;69.11;98630.00;5021009;28;45353;-64
2023/10/21 04:59:38;;;;;;;;;0.00;0.00;;;;;14.39;68.69;98618.63;5022017;28;45338;-65
2023/10/21 05:02:05;;;;;;;;;0.67;0.00;;;;;14.15;69.35;98583.78;5016773;28;46140;-65
2023/10/21 05:04:31;;;;;;;;;0.00;0.00;;;;;14.47;68.88;98628.78;5025085;28;45431;-65
2023/10/21 05:06:57;;;;;;;;;0.00;0.00;;;;;14.49;69.09;98626.09;5017042;28;45431;-67
2023/10/21 05:09:23;;;;;;;;;0.00;0.00;;;;;14.39;68.85;98623.91;5026490;28;47441;-64
2023/10/21 05:11:49;;;;;;;;;0.00;0.00;;;;;14.46;69.16;98624.47;5032165;28;45385;-65
2023/10/21 05:14:15;;;;;;;;;0.00;0.00;;;;;14.37;68.69;98606.47;5035403;28;45558;-65
2023/10/21 05:16:41;;;;;;;;;0.00;0.00;;;;;14.35;68.50;98624.97;5023761;28;45719;-64
2023/10/21 05:19:16;;;;;;;;;1.67;0.00;;;;;14.15;68.67;98573.25;5020451;28;45505;-65
2023/10/21 05:21:43;;;;;;;;;0.67;0.00;;;;;14.55;68.44;98654.81;5024164;28;46640;-64
2023/10/21 05:24:09;;;;;;;;;0.00;0.00;;;;;14.45;69.30;98662.28;5024829;28;45552;-65
2023/10/21 05:26:36;;;;;;;;;2.00;0.33;;;;;14.38;69.32;98653.81;5019005;28;45412;-65
2023/10/21 05:29:02;;;;;;;;;4.00;1.00;;;;;14.11;69.33;98620.84;5023268;28;45733;-65
2023/10/21 05:31:28;;;;;;;;;2.33;0.00;;;;;14.43;68.92;98672.88;5024019;28;45469;-65
2023/10/21 05:33:57;;;;;;;;;1.33;1.33;;;;;14.40;68.64;98648.44;5021476;28;45493;-64
2023/10/21 05:36:23;;;;;;;;;1.67;1.00;;;;;14.37;69.28;98656.50;5022539;28;45374;-65
2023/10/21 05:38:49;;;;;;;;;1.67;1.00;;;;;14.36;68.89;98660.91;5018461;28;46064;-64
2023/10/21 05:41:15;;;;;;;;;0.00;0.00;;;;;14.29;69.26;98651.59;5017670;28;45492;-64
2023/10/21 05:43:40;;;;;;;;;1.67;1.00;;;;;14.38;68.82;98672.25;5018199;28;45452;-68
2023/10/21 05:46:06;;;;;;;;;0.67;0.00;;;;;14.39;69.14;98676.56;5018308;28;45260;-65
2023/10/21 05:48:32;;;;;;;;;1.67;0.00;;;;;14.34;69.34;98670.66;5030388;28;45437;-66
2023/10/21 05:51:01;;;;;;;;;2.00;1.00;;;;;14.36;68.96;98679.34;5018276;28;45988;-66
2023/10/21 05:53:27;;;;;;;;;0.33;0.33;;;;;14.15;69.20;98636.44;5018095;28;45540;-66
2023/10/21 05:55:55;;;;;;;;;0.33;0.00;;;;;14.35;69.04;98674.16;5018208;28;45541;-66
2023/10/21 05:58:20;;;;;;;;;1.67;0.00;;;;;14.44;68.71;98686.88;5017304;28;45336;-65
2023/10/21 06:00:46;;;;;;;;;1.33;0.00;;;;;14.39;69.09;98679.19;5035107;28;46433;-65
2023/10/21 06:03:11;;;;;;;;;1.00;1.00;;;;;14.32;69.10;98664.59;5023519;28;45752;-65
2023/10/21 06:05:37;;;;;;;;;2.67;1.00;;;;;14.38;68.48;98676.66;5016677;28;45272;-66
2023/10/21 06:08:04;;;;;;;;;2.00;0.00;;;;;14.30;68.54;98692.78;5020289;28;45267;-66
2023/10/21 06:10:30;;;;;;;;;1.00;0.33;;;;;14.28;68.80;98677.97;5036281;28;46778;-66
2023/10/21 06:12:55;;;;;;;;;0.33;0.33;;;;;14.23;68.94;98690.50;5045252;28;45543;-66
2023/10/21 06:15:21;;;;;;;;;6.33;1.00;;;;;14.15;68.83;98669.81;5045071;28;45387;-66
2023/10/21 06:17:47;;;;;;;;;1.33;0.00;;;;;14.19;68.90;98681.91;5044258;28;45697;-64
2023/10/21 06:20:13;;;;;;;;;3.33;0.33;;;;;14.26;68.79;98693.88;5033605;28;46140;-66
2023/10/21 06:22:39;;;;;;;;;3.67;1.00;;;;;14.14;69.13;98686.50;5038825;28;45358;-66
2023/10/21 06:25:06;;;;;;;;;2.33;1.00;;;;;14.17;68.92;98694.28;5028625;28;45524;-66
2023/10/21 06:27:32;;;;;;;;;2.33;1.00;;;;;13.91;68.77;98655.97;5047305;28;45525;-65
2023/10/21 06:29:57;;;;;;;;;5.33;0.33;;;;;14.23;69.06;98709.78;5023053;28;45469;-65
2023/10/21 06:32:23;;;;;;;;;3.67;1.00;;;;;14.20;68.96;98702.03;5023504;28;45362;-65
2023/10/21 06:34:50;;;;;;;;;2.67;1.00;;;;;14.18;68.56;98711.78;5047304;28;45373;-66
2023/10/21 06:37:15;;;;;;;;;3.00;2.00;;;;;14.24;68.30;98715.91;5023419;28;45401;-64
2023/10/21 06:39:41;;;;;;;;;1.33;1.00;;;;;14.10;68.66;98696.34;5031359;28;45512;-65
2023/10/21 06:42:06;;;;;;;;;0.00;0.00;;;;;14.15;68.88;98704.88;5022963;28;45598;-65
2023/10/21 06:44:32;;;;;;;;;1.00;1.00;;;;;14.20;68.62;98728.38;5023475;28;45280;-65
2023/10/21 06:46:57;;;;;;;;;2.00;0.00;;;;;14.31;68.04;98738.44;5023070;28;45469;-65
2023/10/21 06:49:23;;;;;;;;;2.67;2.00;;;;;14.27;67.82;98737.69;5022329;28;45487;-65
2023/10/21 06:51:54;;;;;;;;;0.00;0.00;;;;;14.20;67.86;98749.44;5047070;28;45455;-64
2023/10/21 06:54:20;;;;;;;;;3.00;2.00;;;;;14.28;68.21;98746.44;5022230;28;45453;-65
2023/10/21 06:56:46;;;;;;;;;2.00;0.00;;;;;14.23;67.78;98736.13;5024572;28;45401;-65
2023/10/21 06:59:13;;;;;;;;;1.00;1.00;;;;;14.27;67.29;98737.69;5024359;28;46091;-65
2023/10/21 07:01:39;;;;;;;;;3.00;1.00;;;;;14.32;67.12;98756.78;5022020;28;45339;-67
2023/10/21 07:04:05;;;;;;;;;4.00;0.33;;;;;14.29;67.28;98758.72;5035302;28;45863;-64
2023/10/21 07:06:30;;;;;;;;;1.33;1.00;;;;;14.27;66.55;98764.03;5022654;28;45474;-66
2023/10/21 07:08:56;;;;;;;;;5.33;2.67;;;;;14.37;66.79;98767.09;5039516;28;46238;-66
2023/10/21 07:11:21;;;;;;;;;1.00;1.00;;;;;14.20;67.08;98775.75;5042537;28;45449;-65
2023/10/21 07:13:47;;;;;;;;;3.00;0.00;;;;;14.31;66.88;98781.41;5042919;28;45350;-65
2023/10/21 07:16:13;;;;;;;;;1.00;1.00;;;;;14.33;66.96;98776.06;5054563;28;45369;-65
2023/10/21 07:18:39;;;;;;;;;4.00;1.00;;;;;14.29;67.08;98783.25;5032170;28;45441;-65
2023/10/21 07:21:05;;;;;;;;;3.00;3.00;;;;;14.30;66.89;98798.13;5024524;28;45423;-64
2023/10/21 07:23:31;;;;;;;;;1.00;0.33;;;;;14.27;67.61;98798.25;5039030;28;45477;-64
2023/10/21 07:25:57;;;;;;;;;3.33;1.67;;;;;14.25;66.49;98801.88;5038114;28;45461;-65
2023/10/21 07:28:22;;;;;;;;;6.00;1.00;;;;;14.29;67.26;98803.47;5037999;28;47120;-66
2023/10/21 07:30:52;;;;;;;;;0.67;0.67;;;;;14.13;67.20;98796.22;5037813;28;45474;-66
2023/10/21 07:33:21;;;;;;;;;4.00;0.33;;;;;14.31;67.06;98801.63;5055096;28;45614;-66
2023/10/21 07:35:53;;;;;;;;;2.00;2.00;;;;;14.03;66.97;98765.97;5039483;28;45527;-65
2023/10/21 07:38:20;;;;;;;;;1.33;1.00;;;;;14.19;67.26;98779.34;5038717;28;46193;-66
2023/10/21 07:40:46;;;;;;;;;3.00;0.67;;;;;14.03;66.45;98739.66;5038596;28;45479;-66
2023/10/21 07:43:17;;;;;;;;;3.33;2.00;;;;;14.60;66.79;98811.75;5038407;28;45497;-65
2023/10/21 07:45:44;;;;;;;;;2.00;0.33;;;;;14.56;65.91;98789.09;5024828;28;45611;-65
2023/10/21 07:48:10;;;;;;;;;4.33;1.00;;;;;14.48;65.75;98761.38;5030208;28;46088;-66
2023/10/21 07:50:37;;;;;;;;;2.67;2.33;;;;;14.62;65.68;98795.88;5023625;28;45515;-65
2023/10/21 07:53:03;;;;;;;;;1.00;1.00;;;;;14.33;65.52;98765.53;5024367;28;45488;-66
2023/10/21 07:55:29;;;;;;;;;0.33;0.00;;;;;14.11;65.64;98713.81;5018857;28;46040;-67
2023/10/21 07:57:56;;;;;;;;;1.67;1.00;;;;;14.53;65.31;98793.63;5019769;28;45529;-65
2023/10/21 08:00:22;;;;;;;;;2.67;1.00;;;;;14.86;65.30;98814.13;5045104;28;45470;-65
2023/10/21 08:02:48;;;;;;;;;3.67;2.00;;;;;14.86;64.17;98814.13;5018263;28;45434;-67
2023/10/21 08:05:15;;;;;;;;;1.00;1.00;;;;;14.83;64.66;98805.44;5023213;28;45366;-64
2023/10/21 08:07:41;;;;;;;;;2.33;1.00;;;;;14.93;64.59;98815.56;5038098;28;45591;-67
2023/10/21 08:10:07;;;;;;;;;2.33;0.67;;;;;15.03;64.06;98816.81;5036268;28;45439;-67
2023/10/21 08:12:34;;;;;;;;;2.33;1.00;;;;;15.05;64.07;98807.91;5053274;28;45366;-65
2023/10/21 08:15:04;;;;;;;;;3.67;0.00;;;;;15.18;63.47;98820.50;5037958;28;45547;-65
2023/10/21 08:17:33;;;;;;;;;3.00;1.33;;;;;15.06;62.85;98798.22;5037691;28;47110;-66
2023/10/21 08:20:00;;;;;;;;;3.33;1.00;;;;;14.84;63.56;98791.31;5031150;28;45322;-66
2023/10/21 08:22:27;;;;;;;;;2.67;0.00;;;;;15.13;63.60;98809.34;5033649;28;45503;-65
2023/10/21 08:24:53;;;;;;;;;0.67;0.67;;;;;15.16;63.23;98832.91;5019297;28;45377;-67
2023/10/21 08:27:18;;;;;;;;;5.33;2.00;;;;;15.16;63.23;98815.34;5042434;28;47207;-67
2023/10/21 08:29:47;;;;;;;;;0.67;0.00;;;;;14.95;63.11;98764.47;5030906;28;45429;-65
2023/10/21 08:32:13;;;;;;;;;1.00;1.00;;;;;15.35;62.63;98822.34;5017721;28;45659;-66
2023/10/21 08:34:38;;;;;;;;;2.67;2.00;;;;;15.36;62.54;98835.47;5018916;28;46290;-68
2023/10/21 08:37:04;;;;;;;;;4.67;2.00;;;;;15.34;62.65;98842.59;5032212;28;46223;-66
2023/10/21 08:39:30;;;;;;;;;8.33;1.00;;;;;15.35;62.17;98827.63;5022663;28;45521;-64
2023/10/21 08:41:56;;;;;;;;;6.67;1.67;;;;;15.31;62.46;98820.81;5017770;28;45457;-67
2023/10/21 08:44:23;;;;;;;;;2.67;2.00;;;;;15.42;62.03;98834.31;5017827;28;45508;-66
2023/10/21 08:46:54;;;;;;;;;2.33;1.00;;;;;15.65;61.70;98838.47;5022568;28;48132;-66
2023/10/21 08:49:20;;;;;;;;;0.50;0.50;;;;;15.86;61.21;98840.09;5017089;28;45538;-65
2023/10/21 08:51:49;;;;;;;;;1.33;0.67;;;;;15.88;60.42;98832.09;5017526;28;45511;-67
2023/10/21 08:54:17;;;;;;;;;0.67;0.00;;;;;15.84;60.48;98833.19;5027393;28;45478;-66
2023/10/21 08:56:43;;;;;;;;;2.33;1.00;;;;;15.78;60.98;98838.75;5038274;28;46267;-67
2023/10/21 08:59:08;;;;;;;;;3.67;2.00;;;;;15.73;61.31;98840.75;5037342;28;45488;-67
2023/10/21 09:01:38;;;;;;;;;3.33;0.67;;;;;15.54;61.37;98824.94;5037486;28;45618;-64
2023/10/21 09:04:04;;;;;;;;;2.00;1.00;;;;;15.64;61.21;98848.19;5050027;28;45426;-66
2023/10/21 09:06:30;;;;;;;;;3.67;0.33;;;;;15.62;61.31;98843.91;5032684;28;45520;-66
2023/10/21 09:08:55;;;;;;;;;4.67;1.33;;;;;15.72;61.00;98832.00;5036791;28;45487;-64
2023/10/21 09:11:25;;;;;;;;;4.00;2.00;;;;;15.78;61.28;98836.09;5036792;28;45501;-66
2023/10/21 09:13:52;;;;;;;;;3.00;1.67;;;;;15.76;61.04;98843.28;5038330;28;45468;-66
2023/10/21 09:16:19;;;;;;;;;3.00;1.00;;;;;15.92;60.89;98861.81;5035357;28;45607;-66
2023/10/21 09:19:05;;;;;;;;;3.67;2.00;;;;;15.59;60.19;98822.94;5036700;28;45394;-67
2023/10/21 09:21:38;;;;;;;;;3.67;0.33;;;;;15.74;61.08;98864.44;5036619;28;45401;-66
2023/10/21 09:24:06;;;;;;;;;1.33;1.33;;;;;15.71;60.98;98864.63;5038172;28;45449;-66
2023/10/21 09:26:32;;;;;;;;;1.67;1.00;;;;;15.72;60.39;98841.69;5037632;28;45521;-66
2023/10/21 09:29:10;;;;;;;;;2.67;1.00;;;;;15.89;60.66;98857.56;5036993;28;45547;-67
2023/10/21 09:31:53;;;;;;;;;2.33;1.00;;;;;16.06;60.01;98862.00;5036722;28;45413;-66
2023/10/21 09:34:30;;;;;;;;;2.33;1.33;;;;;16.06;60.29;98865.50;5036906;28;45862;-66
2023/10/21 09:37:01;;;;;;;;;0.00;0.00;;;;;16.72;59.18;98843.56;5027365;28;46436;-66
2023/10/21 09:39:36;;;;;;;;;2.00;1.00;;;;;17.01;57.93;98864.97;5037930;28;45500;-66
2023/10/21 09:42:03;;;;;;;;;2.33;1.00;;;;;16.94;57.85;98877.69;5036259;28;45421;-67
2023/10/21 09:44:29;;;;;;;;;2.33;1.00;;;;;16.84;57.92;98878.25;5020422;28;45683;-65
2023/10/21 09:46:56;;;;;;;;;2.00;1.00;;;;;16.78;58.47;98857.41;5016889;28;45465;-65
2023/10/21 09:49:25;;;;;;;;;6.00;2.00;;;;;18.03;55.75;98870.75;5016662;28;45537;-66
2023/10/21 09:52:09;;;;;;;;;2.00;1.00;;;;;20.79;49.69;98864.75;5032382;28;45454;-65
2023/10/21 09:55:07;;;;;;;;;7.33;1.00;;;;;21.72;47.01;98860.72;5032771;28;45581;-67
2023/10/21 09:57:35;;;;;;;;;1.00;1.00;;;;;22.19;44.90;98863.47;5025990;28;45797;-67
2023/10/21 10:00:02;;;;;;;;;3.33;1.00;;;;;20.59;46.27;98842.19;5018163;28;45510;-67
2023/10/21 10:02:30;;;;;;;;;3.33;0.33;;;;;19.63;48.86;98859.16;5036072;28;45478;-68
2023/10/21 10:04:57;;;;;;;;;1.00;1.00;;;;;18.75;50.75;98869.13;5036963;28;45642;-65
2023/10/21 10:07:23;;;;;;;;;2.00;1.00;;;;;18.22;52.61;98878.47;5023939;28;45798;-67
2023/10/21 10:09:49;;;;;;;;;1.33;1.00;;;;;17.80;53.39;98878.25;5025572;28;45583;-67
2023/10/21 10:12:20;;;;;;;;;3.00;1.00;;;;;17.42;54.18;98887.47;5018757;28;45692;-67
2023/10/21 10:14:45;;;;;;;;;4.67;1.33;;;;;17.08;55.49;98860.22;5023491;28;45504;-68
2023/10/21 10:17:13;;;;;;;;;1.00;1.00;;;;;16.80;55.58;98885.50;5020657;28;45682;-67
2023/10/21 10:19:50;;;;;;;;;1.00;1.00;;;;;16.69;56.66;98886.03;5022405;28;45560;-67
2023/10/21 10:22:27;;;;;;;;;1.67;1.33;;;;;16.66;57.43;98896.78;5043415;28;45380;-70
2023/10/21 10:24:55;;;;;;;;;1.33;1.00;;;;;16.49;57.86;98902.94;5022758;28;45620;-66
2023/10/21 10:27:24;;;;;;;;;2.00;2.00;;;;;16.45;57.73;98897.91;5031341;28;45507;-65
2023/10/21 10:29:51;;;;;;;;;1.67;1.00;;;;;16.23;58.02;98885.78;5030586;28;45679;-66
2023/10/21 10:32:20;;;;;;;;;1.00;1.00;;;;;16.21;58.71;98894.72;5025223;28;45440;-66
2023/10/21 10:34:53;;;;;;;;;1.67;1.00;;;;;16.26;57.83;98897.97;5022094;28;45388;-66
2023/10/21 10:37:35;;;;;;;;;2.00;1.00;;;;;16.25;58.35;98878.63;5023232;28;45548;-68
2023/10/21 10:40:18;;;;;;;;;3.33;1.00;;;;;16.46;58.12;98896.94;5023303;28;45308;-66
2023/10/21 10:42:44;;;;;;;;;1.00;1.00;;;;;16.37;58.26;98892.97;5022657;28;45414;-67
2023/10/21 10:45:09;;;;;;;;;1.00;1.00;;;;;16.44;57.92;98890.88;5016003;28;45239;-65
2023/10/21 10:47:37;;;;;;;;;2.67;2.00;;;;;16.42;57.95;98912.13;5016136;28;46276;-66
2023/10/21 10:50:11;;;;;;;;;5.33;0.33;;;;;16.42;57.76;98901.56;5034677;28;45655;-65
2023/10/21 10:52:36;;;;;;;;;5.33;1.33;;;;;16.41;57.84;98901.63;5035749;28;45434;-66
2023/10/21 10:55:03;;;;;;;;;4.00;1.00;;;;;16.53;57.44;98906.25;5037741;28;45394;-66
2023/10/21 10:57:30;;;;;;;;;3.67;2.67;;;;;16.68;57.17;98894.03;5051836;28;46724;-67
2023/10/21 10:59:55;;;;;;;;;2.00;1.00;;;;;16.61;56.67;98901.47;5031911;28;45425;-66
2023/10/21 11:02:23;;;;;;;;;2.00;1.00;;;;;16.72;56.94;98908.81;5040411;28;45331;-67
2023/10/21 11:04:49;;;;;;;;;3.33;1.00;;;;;16.82;56.34;98894.19;5040362;28;45440;-66
2023/10/21 11:07:21;;;;;;;;;3.00;2.00;;;;;16.89;56.56;98903.50;5037199;28;45428;-66
2023/10/21 11:10:00;;;;;;;;;3.00;1.00;;;;;16.84;55.97;98896.78;5049260;28;45485;-67
2023/10/21 11:12:27;;;;;;;;;1.67;1.33;;;;;16.70;56.11;98908.91;5019178;28;45550;-67
2023/10/21 11:14:53;;;;;;;;;2.00;1.00;;;;;16.70;56.21;98894.81;5018359;28;45575;-67
2023/10/21 11:17:18;;;;;;;;;3.67;1.67;;;;;16.60;56.59;98891.81;5019156;28;46102;-66
2023/10/21 11:19:45;;;;;;;;;2.00;0.67;;;;;16.71;56.78;98891.25;5026490;28;45492;-65
2023/10/21 11:22:28;;;;;;;;;2.33;2.33;;;;;16.60;57.01;98897.09;5026083;28;45777;-66
2023/10/21 11:24:54;;;;;;;;;2.00;2.00;;;;;16.65;56.65;98904.78;5027633;28;45502;-66
2023/10/21 11:27:19;;;;;;;;;3.00;1.00;;;;;16.58;56.83;98919.25;5031409;28;46536;-68
2023/10/21 11:29:47;;;;;;;;;1.67;0.67;;;;;16.45;57.09;98893.44;5033241;28;45583;-65
2023/10/21 11:32:32;;;;;;;;;5.00;1.00;;;;;16.27;57.50;98899.66;5036277;28;45662;-67
2023/10/21 11:35:05;;;;;;;;;1.00;0.33;;;;;16.20;57.72;98898.28;5036251;28;45557;-67